createdAt,value
2022-10-01T00:04:54.728Z,97833.84
2022-10-01T00:09:58.351Z,97842.84
2022-10-01T00:15:05.617Z,97832.72
2022-10-01T00:20:14.183Z,97830.50
2022-10-01T00:25:17.683Z,97831.81
2022-10-01T00:30:21.250Z,97831.69
2022-10-01T00:35:24.726Z,97834.13
2022-10-01T00:40:27.910Z,97837.66
2022-10-01T00:45:31.231Z,97837.16
2022-10-01T00:50:36.873Z,97840.09
2022-10-01T00:55:47.137Z,97847.38
2022-10-01T01:00:54.157Z,97849.31
2022-10-01T01:05:58.240Z,97859.75
2022-10-01T01:11:36.832Z,97854.88
2022-10-01T01:16:56.805Z,97858.75
2022-10-01T01:22:04.650Z,97854.41
2022-10-01T01:27:23.804Z,97855.50
2022-10-01T01:32:40.016Z,97850.66
2022-10-01T01:37:49.708Z,97849.84
2022-10-01T01:42:55.323Z,97867.69
2022-10-01T01:48:01.291Z,97866.34
2022-10-01T01:53:04.858Z,97864.25
2022-10-01T01:58:08.242Z,97869.78
2022-10-01T02:03:11.577Z,97885.16
2022-10-01T02:08:30.733Z,97875.16
2022-10-01T02:13:50.102Z,97883.78
2022-10-01T02:19:30.511Z,97885.50
2022-10-01T02:24:39.372Z,97885.91
2022-10-01T02:29:50.895Z,97887.00
2022-10-01T02:34:55.393Z,97890.34
2022-10-01T02:40:01.831Z,97883.25
2022-10-01T02:45:08.004Z,97885.81
2022-10-01T02:50:12.640Z,97883.16
2022-10-01T02:55:38.622Z,97889.13
2022-10-01T03:00:42.216Z,97885.38
2022-10-01T03:05:45.740Z,97882.94
2022-10-01T03:10:49.207Z,97883.03
2022-10-01T03:15:54.047Z,97883.66
2022-10-01T03:20:57.562Z,97885.66
2022-10-01T03:26:00.929Z,97891.13
2022-10-01T03:31:11.495Z,97889.00
2022-10-01T03:36:15.151Z,97891.22
2022-10-01T03:41:18.924Z,97896.69
2022-10-01T03:46:22.510Z,97893.72
2022-10-01T03:51:25.735Z,97887.53
2022-10-01T03:56:29.302Z,97891.56
2022-10-01T04:01:33.079Z,97886.91
2022-10-01T04:06:36.672Z,97889.59
2022-10-01T04:11:40.087Z,97885.66
2022-10-01T04:16:43.487Z,97886.88
2022-10-01T04:21:47.144Z,97887.19
2022-10-01T04:26:51.896Z,97893.28
2022-10-01T04:31:55.262Z,97896.66
2022-10-01T04:36:58.778Z,97905.16
2022-10-01T04:42:02.397Z,97893.53
2022-10-01T04:47:07.394Z,97911.03
2022-10-01T04:52:10.810Z,97903.28
2022-10-01T04:57:16.890Z,97901.63
2022-10-01T05:02:23.441Z,97912.41
2022-10-01T05:07:26.973Z,97903.00
2022-10-01T05:12:30.921Z,97907.56
2022-10-01T05:17:34.440Z,97920.16
2022-10-01T05:22:41.539Z,97919.66
2022-10-01T05:27:45.607Z,97921.69
2022-10-01T05:33:01.068Z,97926.72
2022-10-01T05:38:04.376Z,97919.63
2022-10-01T05:43:07.692Z,97923.47
2022-10-01T05:48:12.141Z,97922.66
2022-10-01T05:53:15.657Z,97924.25
2022-10-01T05:58:19.102Z,97928.00
2022-10-01T06:03:23.065Z,97927.19
2022-10-01T06:08:26.818Z,97937.22
2022-10-01T06:13:30.952Z,97926.72
2022-10-01T06:18:34.872Z,97927.06
2022-10-01T06:23:38.484Z,97931.47
2022-10-01T06:28:41.875Z,97928.41
2022-10-01T06:33:45.924Z,97937.63
2022-10-01T06:38:49.465Z,97934.53
2022-10-01T06:43:52.663Z,97940.66
2022-10-01T06:48:56.103Z,97949.41
2022-10-01T06:53:59.305Z,97945.38
2022-10-01T06:59:04.630Z,97954.13
2022-10-01T07:04:09.235Z,97946.00
2022-10-01T07:09:12.742Z,97956.19
2022-10-01T07:14:16.487Z,97950.22
2022-10-01T07:19:19.859Z,97952.47
2022-10-01T07:24:23.274Z,97956.88
2022-10-01T07:29:26.940Z,97951.03
2022-10-01T07:34:30.803Z,97944.88
2022-10-01T07:39:34.209Z,97941.97
2022-10-01T07:44:37.302Z,97943.13
2022-10-01T07:49:40.680Z,97939.56
2022-10-01T07:54:44.008Z,97934.38
2022-10-01T07:59:50.276Z,97935.09
2022-10-01T08:04:55.713Z,97931.69
2022-10-01T08:09:59.394Z,97937.00
2022-10-01T08:15:02.531Z,97929.94
2022-10-01T08:20:09.775Z,97917.44
2022-10-01T08:25:13.681Z,97918.72
2022-10-01T08:30:18.291Z,97912.41
2022-10-01T08:35:22.175Z,97904.13
2022-10-01T08:40:25.588Z,97897.81
2022-10-01T08:45:41.208Z,97901.81
2022-10-01T08:51:13.524Z,97896.44
2022-10-01T08:56:35.341Z,97894.72
2022-10-01T09:01:39.209Z,97886.56
2022-10-01T09:06:48.031Z,97881.56
2022-10-01T09:12:00.574Z,97876.00
2022-10-01T09:17:23.029Z,97873.72
2022-10-01T09:22:53.791Z,97872.56
2022-10-01T09:28:36.310Z,97864.66
2022-10-01T09:33:58.954Z,97861.91
2022-10-01T09:39:30.532Z,97854.78
2022-10-01T09:44:34.477Z,97850.09
2022-10-01T09:49:45.259Z,97848.81
2022-10-01T09:55:27.595Z,97847.34
2022-10-01T10:00:32.646Z,97838.78
2022-10-01T10:05:47.217Z,97832.22
2022-10-01T10:11:10.220Z,97828.13
2022-10-01T10:16:21.431Z,97823.97
2022-10-01T10:21:28.187Z,97819.97
2022-10-01T10:26:40.304Z,97803.66
2022-10-01T10:31:45.833Z,97798.59
2022-10-01T10:36:49.588Z,97803.00
2022-10-01T10:41:54.405Z,97787.28
2022-10-01T10:47:01.293Z,97786.38
2022-10-01T10:52:20.168Z,97783.03
2022-10-01T10:57:34.186Z,97774.50
2022-10-01T11:02:41.473Z,97766.25
2022-10-01T11:07:46.727Z,97758.00
2022-10-01T11:13:17.507Z,97752.84
2022-10-01T11:18:21.556Z,97753.31
2022-10-01T11:23:42.884Z,97746.69
2022-10-01T11:29:10.656Z,97735.16
2022-10-01T11:34:46.820Z,97729.75
2022-10-01T11:39:54.681Z,97725.81
2022-10-01T11:45:06.380Z,97734.34
2022-10-01T11:50:20.943Z,97725.53
2022-10-01T11:55:38.115Z,97719.69
2022-10-01T12:00:46.529Z,97701.56
2022-10-01T12:05:52.387Z,97709.28
2022-10-01T12:11:12.725Z,97700.72
2022-10-01T12:16:39.835Z,97690.78
2022-10-01T12:22:07.272Z,97691.22
2022-10-01T12:27:37.786Z,97683.91
2022-10-01T12:33:05.165Z,97674.97
2022-10-01T12:38:30.139Z,97673.03
2022-10-01T12:43:45.335Z,97669.81
2022-10-01T12:49:15.772Z,97664.31
2022-10-01T12:55:00.620Z,97663.97
2022-10-01T13:00:30.977Z,97657.84
2022-10-01T13:05:58.452Z,97656.34
2022-10-01T13:11:43.418Z,97649.03
2022-10-01T13:17:14.160Z,97647.94
2022-10-01T13:22:36.724Z,97649.47
2022-10-01T13:27:47.720Z,97653.72
2022-10-01T13:33:01.174Z,97651.78
2022-10-01T13:38:16.230Z,97643.38
2022-10-01T13:43:23.610Z,97645.84
2022-10-01T13:48:31.813Z,97647.88
2022-10-01T13:53:37.548Z,97645.16
2022-10-01T13:58:43.637Z,97641.53
2022-10-01T14:04:04.944Z,97644.66
2022-10-01T14:09:29.196Z,97637.56
2022-10-01T14:14:48.954Z,97621.50
2022-10-01T14:19:52.976Z,97634.44
2022-10-01T14:25:14.299Z,97638.50
2022-10-01T14:30:23.589Z,97636.13
2022-10-01T14:35:38.727Z,97633.09
2022-10-01T14:40:46.247Z,97627.59
2022-10-01T14:45:59.753Z,97629.56
2022-10-01T14:51:06.648Z,97626.72
2022-10-01T14:56:14.444Z,97625.78
2022-10-01T15:01:20.156Z,97621.75
2022-10-01T15:06:28.001Z,97626.88
2022-10-01T15:11:33.962Z,97617.56
2022-10-01T15:16:38.299Z,97618.84
2022-10-01T15:21:54.889Z,97614.66
2022-10-01T15:26:58.875Z,97624.63
2022-10-01T15:32:03.053Z,97616.19
2022-10-01T15:37:06.388Z,97616.00
2022-10-01T15:42:25.391Z,97615.69
2022-10-01T15:47:34.008Z,97611.81
2022-10-01T15:52:48.005Z,97619.16
2022-10-01T15:58:13.303Z,97620.94
2022-10-01T16:03:23.720Z,97619.00
2022-10-01T16:08:35.436Z,97619.47
2022-10-01T16:13:44.519Z,97620.91
2022-10-01T16:18:52.465Z,97621.81
2022-10-01T16:23:56.606Z,97624.72
2022-10-01T16:29:01.781Z,97631.13
2022-10-01T16:34:11.535Z,97629.31
2022-10-01T16:39:14.729Z,97624.31
2022-10-01T16:44:17.901Z,97631.50
2022-10-01T16:49:21.091Z,97627.31
2022-10-01T16:54:26.674Z,97632.41
2022-10-01T16:59:32.539Z,97624.47
2022-10-01T17:04:35.964Z,97618.13
2022-10-01T17:09:40.195Z,97626.66
2022-10-01T17:14:43.357Z,97616.66
2022-10-01T17:19:46.815Z,97622.94
2022-10-01T17:24:50.040Z,97618.25
2022-10-01T17:29:53.400Z,97613.44
2022-10-01T17:34:56.637Z,97617.78
2022-10-01T17:40:00.985Z,97612.41
2022-10-01T17:45:10.395Z,97613.84
2022-10-01T17:50:15.124Z,97611.22
2022-10-01T17:55:18.682Z,97608.31
2022-10-01T18:00:22.294Z,97606.19
2022-10-01T18:05:25.823Z,97594.78
2022-10-01T18:10:29.225Z,97602.78
2022-10-01T18:15:32.760Z,97606.16
2022-10-01T18:20:38.125Z,97598.75
2022-10-01T18:25:41.918Z,97596.34
2022-10-01T18:30:48.091Z,97586.00
2022-10-01T18:35:57.436Z,97597.56
2022-10-01T18:41:08.027Z,97600.59
2022-10-01T18:46:33.771Z,97588.38
2022-10-01T18:52:11.590Z,97583.22
2022-10-01T18:57:54.960Z,97584.63
2022-10-01T19:03:26.502Z,97585.75
2022-10-01T19:08:48.365Z,97593.16
2022-10-01T19:14:06.758Z,97589.59
2022-10-01T19:19:20.961Z,97585.56
2022-10-01T19:24:33.608Z,97581.84
2022-10-01T19:29:42.758Z,97585.00
2022-10-01T19:34:56.125Z,97578.22
2022-10-01T19:40:17.067Z,97573.38
2022-10-01T19:45:42.499Z,97579.25
2022-10-01T19:50:52.702Z,97585.63
2022-10-01T19:56:01.443Z,97571.78
2022-10-01T20:01:12.281Z,97585.13
2022-10-01T20:06:35.363Z,97583.31
2022-10-01T20:12:01.005Z,97569.97
2022-10-01T20:17:16.175Z,97573.50
2022-10-01T20:22:35.313Z,97571.56
2022-10-01T20:27:48.494Z,97569.06
2022-10-01T20:33:17.416Z,97562.78
2022-10-01T20:38:24.699Z,97566.31
2022-10-01T20:43:58.978Z,97564.06
2022-10-01T20:49:12.811Z,97554.75
2022-10-01T20:54:20.869Z,97561.84
2022-10-01T20:59:30.045Z,97573.28
2022-10-01T21:04:44.335Z,97572.16
2022-10-01T21:09:49.707Z,97564.78
2022-10-01T21:14:55.016Z,97569.44
2022-10-01T21:20:33.898Z,97570.34
2022-10-01T21:25:53.521Z,97569.53
2022-10-01T21:31:14.992Z,97561.66
2022-10-01T21:36:49.229Z,97553.75
2022-10-01T21:42:12.344Z,97569.66
2022-10-01T21:47:45.546Z,97558.84
2022-10-01T21:53:28.874Z,97559.47
2022-10-01T21:58:38.485Z,97561.50
2022-10-01T22:04:14.151Z,97553.09
2022-10-01T22:10:00.040Z,97554.63
2022-10-01T22:15:15.557Z,97558.50
2022-10-01T22:20:25.581Z,97546.94
2022-10-01T22:25:32.437Z,97558.97
2022-10-01T22:30:40.759Z,97554.53
2022-10-01T22:35:54.316Z,97552.59
2022-10-01T22:41:10.970Z,97548.75
2022-10-01T22:46:58.940Z,97545.22
2022-10-01T22:52:23.752Z,97543.94
2022-10-01T22:58:15.378Z,97543.94
2022-10-01T23:03:22.864Z,97545.53
2022-10-01T23:09:00.762Z,97536.22
2022-10-01T23:14:25.018Z,97538.97
2022-10-01T23:19:48.656Z,97530.28
2022-10-01T23:25:02.811Z,97529.25
2022-10-01T23:30:11.991Z,97537.25
2022-10-01T23:35:41.850Z,97539.69
2022-10-01T23:40:48.092Z,97527.75
2022-10-01T23:46:13.657Z,97523.41
2022-10-01T23:51:27.069Z,97525.66
2022-10-01T23:56:51.960Z,97522.41
